Time;durP1;ratioP1;P1;durP2;ratioP2;P2;SDS_P1;SDS_P2;PMS_P1;PMS_P2;Temp;Humidity;BMP_temperature;BMP_pressure;BME280_temperature;BME280_humidity;BME280_pressure;Samples;Min_cycle;Max_cycle;Signal;HPM_P1;HPM_P2
2021/03/27 00:02:05;;;;;;;1.97;1.70;;;22.90;24.40;;;;;;4992774;28;20222;-59
2021/03/27 00:04:31;;;;;;;2.47;2.00;;;22.90;24.40;;;;;;4991174;28;20268;-60
2021/03/27 00:06:57;;;;;;;2.37;1.80;;;22.90;24.40;;;;;;4991769;28;20218;-59
2021/03/27 00:09:23;;;;;;;3.03;2.20;;;22.90;24.30;;;;;;4991085;28;20210;-60
2021/03/27 00:11:49;;;;;;;2.07;1.80;;;22.90;24.40;;;;;;4993448;28;20230;-59
2021/03/27 00:14:15;;;;;;;2.20;2.00;;;22.90;24.40;;;;;;4986467;28;20702;-60
2021/03/27 00:16:41;;;;;;;2.10;1.90;;;22.90;24.60;;;;;;4986151;28;20202;-59
2021/03/27 00:19:07;;;;;;;2.53;2.07;;;22.90;24.50;;;;;;4986989;28;20210;-60
2021/03/27 00:21:33;;;;;;;2.27;1.87;;;22.90;24.50;;;;;;4982785;28;20234;-59
2021/03/27 00:23:59;;;;;;;2.50;2.00;;;22.90;24.60;;;;;;4991931;28;20607;-60
2021/03/27 00:26:25;;;;;;;2.00;1.90;;;22.90;24.40;;;;;;4988353;28;20206;-58
2021/03/27 00:28:51;;;;;;;2.30;1.90;;;22.90;24.50;;;;;;4991308;28;20260;-58
2021/03/27 00:31:17;;;;;;;3.73;2.03;;;22.90;24.50;;;;;;4992208;28;20218;-58
2021/03/27 00:33:43;;;;;;;2.63;2.00;;;22.90;24.60;;;;;;4990979;28;20650;-59
2021/03/27 00:36:09;;;;;;;2.17;1.97;;;22.90;24.50;;;;;;4987714;28;20265;-58
2021/03/27 00:38:35;;;;;;;2.37;2.10;;;22.90;24.50;;;;;;4990780;28;20257;-58
2021/03/27 00:41:01;;;;;;;2.60;2.00;;;22.90;24.60;;;;;;4990124;28;20235;-59
2021/03/27 00:43:27;;;;;;;2.47;1.80;;;22.90;24.60;;;;;;4990222;28;20981;-58
2021/03/27 00:45:53;;;;;;;2.10;1.90;;;22.90;24.50;;;;;;4992088;28;20210;-58
2021/03/27 00:48:19;;;;;;;3.17;1.70;;;22.90;24.60;;;;;;4990684;28;20204;-59
2021/03/27 00:50:45;;;;;;;2.37;2.00;;;22.90;24.60;;;;;;4992126;28;20285;-59
2021/03/27 00:53:11;;;;;;;3.07;1.90;;;22.90;24.60;;;;;;4991207;28;20274;-58
2021/03/27 00:55:37;;;;;;;2.17;1.97;;;22.90;24.60;;;;;;4992042;28;20698;-59
2021/03/27 00:58:03;;;;;;;2.10;1.90;;;22.90;24.50;;;;;;4990253;28;20249;-59
2021/03/27 01:00:29;;;;;;;2.00;1.80;;;22.90;24.50;;;;;;4991935;28;20227;-58
2021/03/27 01:02:55;;;;;;;2.17;2.00;;;22.90;24.50;;;;;;4991659;28;20204;-59
2021/03/27 01:05:21;;;;;;;2.10;1.80;;;22.90;24.50;;;;;;4990965;28;20231;-58
2021/03/27 01:07:47;;;;;;;2.03;1.70;;;22.90;24.50;;;;;;4990615;28;20224;-58
2021/03/27 01:10:13;;;;;;;1.87;1.77;;;22.90;24.50;;;;;;4990234;28;20222;-59
2021/03/27 01:12:39;;;;;;;2.10;1.80;;;22.90;24.50;;;;;;4991318;28;20612;-59
2021/03/27 01:15:05;;;;;;;1.70;1.53;;;22.90;24.50;;;;;;5004432;28;20707;-59
2021/03/27 01:17:31;;;;;;;1.83;1.67;;;22.90;24.60;;;;;;4979891;28;20253;-58
2021/03/27 01:19:57;;;;;;;1.70;1.60;;;22.90;25.10;;;;;;4990886;28;20207;-59
2021/03/27 01:22:23;;;;;;;1.77;1.67;;;22.90;24.60;;;;;;4989905;28;20214;-59
2021/03/27 01:24:49;;;;;;;2.10;1.90;;;22.90;24.60;;;;;;4989003;28;20230;-59
2021/03/27 01:27:15;;;;;;;1.80;1.70;;;22.90;24.70;;;;;;4990596;28;20213;-59
2021/03/27 01:29:41;;;;;;;1.70;1.60;;;22.90;24.70;;;;;;4990270;28;20744;-59
2021/03/27 01:32:07;;;;;;;1.80;1.70;;;22.90;24.70;;;;;;4990656;28;20547;-59
2021/03/27 01:34:33;;;;;;;1.70;1.60;;;22.90;24.70;;;;;;4990584;28;20597;-59
2021/03/27 01:36:59;;;;;;;2.53;1.93;;;22.90;24.70;;;;;;4990158;28;20659;-59
2021/03/27 01:39:25;;;;;;;1.70;1.60;;;22.90;24.70;;;;;;4985877;28;20204;-59
2021/03/27 01:41:51;;;;;;;2.23;1.70;;;22.90;24.70;;;;;;4991185;28;20222;-60
2021/03/27 01:44:17;;;;;;;1.77;1.67;;;22.90;24.70;;;;;;4989631;28;20210;-59
2021/03/27 01:46:43;;;;;;;1.83;1.73;;;22.90;24.70;;;;;;4989780;28;20206;-59
2021/03/27 01:49:09;;;;;;;1.73;1.63;;;22.90;24.60;;;;;;4989367;28;20217;-59
2021/03/27 01:51:36;;;;;;;1.60;1.50;;;22.90;24.70;;;;;;4991000;28;20230;-59
2021/03/27 01:54:02;;;;;;;1.67;1.57;;;22.90;24.70;;;;;;4989714;28;20207;-59
2021/03/27 01:56:28;;;;;;;2.57;1.67;;;22.90;24.70;;;;;;4989784;28;20237;-59
2021/03/27 01:58:54;;;;;;;2.00;1.90;;;22.90;24.70;;;;;;4977456;28;20210;-59
2021/03/27 02:01:20;;;;;;;1.80;1.70;;;22.90;24.80;;;;;;4990219;28;20282;-59
2021/03/27 02:03:46;;;;;;;1.67;1.57;;;22.90;24.70;;;;;;4989709;28;20207;-59
2021/03/27 02:06:12;;;;;;;1.70;1.60;;;22.90;24.70;;;;;;4990208;28;20231;-59
2021/03/27 02:08:38;;;;;;;1.83;1.70;;;22.90;24.70;;;;;;4989406;28;20200;-59
2021/03/27 02:11:04;;;;;;;1.57;1.47;;;22.90;24.70;;;;;;4989637;28;20333;-59
2021/03/27 02:13:30;;;;;;;1.57;1.47;;;22.90;24.80;;;;;;4989219;28;20582;-59
2021/03/27 02:15:56;;;;;;;2.30;1.53;;;22.90;24.80;;;;;;4990768;28;20227;-59
2021/03/27 02:18:22;;;;;;;1.97;1.70;;;22.90;24.70;;;;;;4989191;28;20206;-59
2021/03/27 02:20:48;;;;;;;2.47;1.70;;;22.90;24.80;;;;;;4989220;28;20322;-59
2021/03/27 02:23:14;;;;;;;2.00;1.80;;;22.90;24.80;;;;;;4988634;28;20200;-59
2021/03/27 02:25:40;;;;;;;2.00;1.53;;;22.90;24.70;;;;;;4990785;28;20206;-59
2021/03/27 02:28:06;;;;;;;2.70;1.63;;;22.90;24.80;;;;;;4989179;28;20210;-59
2021/03/27 02:30:32;;;;;;;1.90;1.80;;;22.90;24.80;;;;;;4988711;28;20540;-60
2021/03/27 02:32:58;;;;;;;2.00;1.80;;;22.90;24.80;;;;;;4990671;28;20203;-58
2021/03/27 02:35:24;;;;;;;2.03;1.63;;;22.90;24.80;;;;;;4988474;28;20240;-59
2021/03/27 02:37:50;;;;;;;2.20;1.50;;;22.90;24.90;;;;;;4990316;28;20227;-59
2021/03/27 02:40:16;;;;;;;4.10;1.87;;;22.90;25.00;;;;;;4989285;28;20277;-59
2021/03/27 02:42:42;;;;;;;1.70;1.57;;;22.90;25.00;;;;;;4989905;28;20213;-59
2021/03/27 02:45:08;;;;;;;1.67;1.53;;;22.90;24.90;;;;;;4988639;28;20207;-59
2021/03/27 02:47:34;;;;;;;1.80;1.70;;;22.90;25.00;;;;;;4988907;28;20209;-59
2021/03/27 02:50:00;;;;;;;1.90;1.60;;;22.90;25.00;;;;;;4990575;28;20220;-59
2021/03/27 02:52:26;;;;;;;2.00;1.77;;;23.00;25.00;;;;;;4989324;28;20258;-59
2021/03/27 02:54:52;;;;;;;1.77;1.67;;;22.90;24.90;;;;;;4989281;28;20293;-59
2021/03/27 02:57:18;;;;;;;3.20;1.60;;;22.90;24.90;;;;;;4988605;28;20262;-59
2021/03/27 02:59:44;;;;;;;1.97;1.67;;;22.90;24.90;;;;;;4990768;28;20227;-59
2021/03/27 03:02:10;;;;;;;1.70;1.60;;;22.90;25.00;;;;;;4989050;28;20547;-59
2021/03/27 03:04:36;;;;;;;1.53;1.43;;;22.90;24.90;;;;;;4989610;28;20232;-60
2021/03/27 03:07:02;;;;;;;2.33;1.80;;;22.90;24.90;;;;;;4988699;28;20222;-60
2021/03/27 03:09:28;;;;;;;2.00;1.73;;;22.90;25.00;;;;;;4988157;28;20318;-59
2021/03/27 03:11:54;;;;;;;1.73;1.63;;;22.90;24.90;;;;;;4990124;28;20654;-59
2021/03/27 03:14:20;;;;;;;1.60;1.50;;;22.90;24.90;;;;;;4991954;28;20234;-59
2021/03/27 03:16:46;;;;;;;1.77;1.63;;;22.90;24.90;;;;;;4993148;28;20242;-58
2021/03/27 03:19:12;;;;;;;2.47;1.73;;;22.90;25.00;;;;;;4989968;28;20230;-59
2021/03/27 03:21:38;;;;;;;1.90;1.67;;;22.90;24.90;;;;;;4979641;28;20212;-59
2021/03/27 03:24:04;;;;;;;2.13;1.53;;;22.90;24.90;;;;;;4991548;28;20205;-59
2021/03/27 03:26:30;;;;;;;2.33;1.70;;;22.90;25.00;;;;;;4991828;28;20721;-59
2021/03/27 03:28:56;;;;;;;1.90;1.47;;;22.90;24.90;;;;;;4993405;28;20206;-59
2021/03/27 03:31:22;;;;;;;1.80;1.70;;;23.00;25.00;;;;;;4992344;28;20240;-59
2021/03/27 03:33:48;;;;;;;2.27;1.40;;;22.90;25.00;;;;;;4993586;28;20537;-59
2021/03/27 03:36:14;;;;;;;2.80;1.60;;;22.90;25.00;;;;;;4991547;28;20309;-59
2021/03/27 03:38:40;;;;;;;2.63;2.00;;;22.90;25.00;;;;;;4992356;28;20235;-59
2021/03/27 03:41:06;;;;;;;1.60;1.40;;;22.90;25.00;;;;;;4992818;28;20226;-59
2021/03/27 03:43:32;;;;;;;1.57;1.47;;;22.90;25.00;;;;;;4990976;28;20213;-59
2021/03/27 03:45:58;;;;;;;1.57;1.47;;;22.90;25.00;;;;;;4991641;28;20211;-59
2021/03/27 03:48:24;;;;;;;2.27;1.90;;;22.90;25.00;;;;;;4993138;28;20217;-59
2021/03/27 03:50:50;;;;;;;1.83;1.57;;;22.90;25.00;;;;;;4991807;28;20703;-59
2021/03/27 03:53:16;;;;;;;1.83;1.73;;;22.90;25.00;;;;;;4993300;28;20222;-59
2021/03/27 03:55:42;;;;;;;1.60;1.50;;;22.90;25.00;;;;;;4991149;28;20261;-59
2021/03/27 03:58:08;;;;;;;1.70;1.60;;;22.90;25.00;;;;;;4992968;28;20524;-59
2021/03/27 04:00:34;;;;;;;1.67;1.57;;;22.90;25.10;;;;;;4992306;28;20227;-60
2021/03/27 04:03:00;;;;;;;1.60;1.50;;;22.90;25.00;;;;;;4992402;28;20233;-59
2021/03/27 04:05:26;;;;;;;2.60;1.70;;;22.90;25.00;;;;;;4991254;28;20214;-59
2021/03/27 04:07:52;;;;;;;2.40;1.70;;;22.90;25.00;;;;;;4991797;28;20226;-59
2021/03/27 04:10:18;;;;;;;1.67;1.50;;;22.90;25.10;;;;;;4990316;28;20695;-58
2021/03/27 04:12:44;;;;;;;1.70;1.53;;;22.90;25.00;;;;;;4988339;28;20211;-59
2021/03/27 04:15:10;;;;;;;1.50;1.40;;;22.90;25.10;;;;;;4992970;28;20237;-60
2021/03/27 04:17:36;;;;;;;1.80;1.70;;;22.90;25.00;;;;;;4992004;28;20210;-60
2021/03/27 04:20:02;;;;;;;1.67;1.57;;;22.90;25.10;;;;;;4992889;28;20234;-60
2021/03/27 04:22:28;;;;;;;1.50;1.40;;;22.90;25.10;;;;;;4990997;28;20229;-60
2021/03/27 04:24:54;;;;;;;1.57;1.47;;;22.90;25.10;;;;;;4992125;28;20199;-60
2021/03/27 04:27:20;;;;;;;1.70;1.60;;;22.90;25.00;;;;;;4990672;28;20254;-60
2021/03/27 04:29:46;;;;;;;1.77;1.67;;;22.90;25.10;;;;;;4992343;28;20239;-60
2021/03/27 04:32:12;;;;;;;1.73;1.63;;;22.90;25.10;;;;;;4991243;28;20221;-60
2021/03/27 04:34:38;;;;;;;1.60;1.43;;;22.90;25.10;;;;;;4991331;28;20250;-59
2021/03/27 04:37:04;;;;;;;1.80;1.70;;;22.90;25.10;;;;;;4991058;28;20210;-59
2021/03/27 04:39:30;;;;;;;1.50;1.40;;;22.90;25.00;;;;;;4992344;28;20230;-59
2021/03/27 04:41:56;;;;;;;1.70;1.57;;;22.90;25.10;;;;;;4991337;28;20609;-59
2021/03/27 04:44:22;;;;;;;1.80;1.50;;;22.90;25.10;;;;;;4990579;28;20231;-60
2021/03/27 04:46:49;;;;;;;1.67;1.30;;;22.90;25.10;;;;;;4990079;28;20218;-59
2021/03/27 04:49:15;;;;;;;2.17;1.77;;;22.90;25.10;;;;;;4991019;28;20240;-58
2021/03/27 04:51:41;;;;;;;2.53;1.30;;;22.90;25.10;;;;;;4991767;28;20253;-59
2021/03/27 04:54:07;;;;;;;1.80;1.60;;;22.90;25.10;;;;;;4990733;28;20214;-59
2021/03/27 04:56:33;;;;;;;1.80;1.70;;;22.90;25.20;;;;;;4990587;28;20207;-59
2021/03/27 04:58:59;;;;;;;1.90;1.70;;;22.90;25.20;;;;;;4991823;28;20585;-59
2021/03/27 05:01:25;;;;;;;1.67;1.57;;;22.90;25.20;;;;;;4991036;28;20211;-58
2021/03/27 05:03:51;;;;;;;1.70;1.47;;;22.90;25.70;;;;;;4992110;28;20207;-59
2021/03/27 05:06:17;;;;;;;1.67;1.57;;;22.90;25.10;;;;;;4987203;28;20308;-59
2021/03/27 05:08:43;;;;;;;1.53;1.43;;;22.90;25.20;;;;;;4990727;28;20553;-59
2021/03/27 05:11:09;;;;;;;1.50;1.40;;;22.90;25.20;;;;;;4989446;28;20202;-59
2021/03/27 05:13:35;;;;;;;1.93;1.50;;;22.90;25.20;;;;;;4991972;28;20212;-59
2021/03/27 05:16:01;;;;;;;1.63;1.33;;;22.90;25.20;;;;;;4990825;28;20235;-59
2021/03/27 05:18:27;;;;;;;1.57;1.23;;;22.90;25.20;;;;;;4991023;28;20253;-58
2021/03/27 05:20:53;;;;;;;1.67;1.50;;;22.90;25.20;;;;;;4989325;28;20276;-59
2021/03/27 05:23:19;;;;;;;1.70;1.60;;;22.90;25.20;;;;;;4991236;28;20261;-59
2021/03/27 05:25:45;;;;;;;1.70;1.60;;;22.90;25.20;;;;;;4990633;28;20353;-59
2021/03/27 05:28:11;;;;;;;1.63;1.53;;;22.90;25.20;;;;;;4990772;28;20205;-58
2021/03/27 05:30:37;;;;;;;1.60;1.50;;;22.90;25.20;;;;;;4990419;28;20226;-59
2021/03/27 05:33:03;;;;;;;1.43;1.33;;;22.90;25.30;;;;;;4993202;23;20284;-49
2021/03/27 05:35:29;;;;;;;2.00;1.40;;;22.90;25.20;;;;;;4962081;28;20253;-48
2021/03/27 05:37:55;;;;;;;2.87;1.50;;;22.90;25.20;;;;;;4972350;28;20240;-56
2021/03/27 05:40:21;;;;;;;1.60;1.50;;;22.90;25.20;;;;;;4971080;28;20258;-54
2021/03/27 05:42:47;;;;;;;1.50;1.40;;;22.90;25.20;;;;;;4972165;28;20539;-51
2021/03/27 05:45:13;;;;;;;1.93;1.53;;;22.90;25.20;;;;;;4970274;28;20273;-45
2021/03/27 05:47:39;;;;;;;1.77;1.67;;;22.90;25.20;;;;;;4970657;28;20269;-53
2021/03/27 05:50:05;;;;;;;1.73;1.50;;;22.90;25.20;;;;;;4971191;28;20223;-50
2021/03/27 05:52:31;;;;;;;2.17;1.50;;;22.90;25.20;;;;;;4970843;28;20282;-55
2021/03/27 05:54:57;;;;;;;1.20;1.10;;;22.90;25.20;;;;;;4971042;28;20242;-55
2021/03/27 05:57:23;;;;;;;1.63;1.50;;;22.90;25.20;;;;;;4971823;28;20208;-52
2021/03/27 05:59:49;;;;;;;1.63;1.53;;;22.90;25.70;;;;;;4970626;28;20719;-52
2021/03/27 06:02:15;;;;;;;1.63;1.53;;;23.00;25.30;;;;;;4971695;28;20261;-54
2021/03/27 06:04:41;;;;;;;3.20;1.50;;;22.90;25.30;;;;;;4961410;28;20525;-47
2021/03/27 06:07:07;;;;;;;1.90;1.70;;;22.90;25.20;;;;;;4971588;28;20215;-50
2021/03/27 06:09:33;;;;;;;1.60;1.50;;;22.90;25.20;;;;;;4969568;28;20233;-51
2021/03/27 06:11:59;;;;;;;1.47;1.33;;;22.90;25.20;;;;;;4971245;28;20211;-57
2021/03/27 06:14:25;;;;;;;1.40;1.30;;;22.90;25.30;;;;;;4970497;28;20230;-52
2021/03/27 06:16:51;;;;;;;1.37;1.27;;;22.90;25.30;;;;;;4971057;28;20570;-57
2021/03/27 06:19:17;;;;;;;1.40;1.30;;;22.90;25.30;;;;;;4971021;28;20236;-53
2021/03/27 06:21:43;;;;;;;1.70;1.50;;;22.90;25.30;;;;;;4970950;28;20588;-54
2021/03/27 06:24:09;;;;;;;2.20;1.47;;;22.90;25.30;;;;;;4970472;28;20211;-51
2021/03/27 06:26:35;;;;;;;2.10;1.50;;;22.90;25.40;;;;;;4971003;28;20622;-45
2021/03/27 06:29:01;;;;;;;1.77;1.40;;;22.90;25.30;;;;;;4971201;28;20238;-51
2021/03/27 06:31:27;;;;;;;1.50;1.40;;;22.90;25.30;;;;;;4970101;28;20211;-51
2021/03/27 06:33:53;;;;;;;1.47;1.37;;;22.90;25.30;;;;;;4969590;28;20224;-48
2021/03/27 06:36:19;;;;;;;1.47;1.37;;;22.90;25.30;;;;;;4970844;28;20236;-56
2021/03/27 06:38:45;;;;;;;2.40;1.30;;;22.90;25.30;;;;;;4970341;28;20231;-51
2021/03/27 06:41:11;;;;;;;1.60;1.40;;;22.90;25.30;;;;;;4971425;28;20209;-50
2021/03/27 06:43:37;;;;;;;1.50;1.40;;;22.90;25.30;;;;;;4966877;28;20671;-50
2021/03/27 06:46:03;;;;;;;1.40;1.30;;;22.90;25.30;;;;;;4972488;28;20223;-50
2021/03/27 06:48:28;;;;;;;1.40;1.33;;;22.90;25.30;;;;;;4972641;28;20666;-56
2021/03/27 06:50:54;;;;;;;2.13;1.37;;;22.90;25.30;;;;;;4973926;28;20199;-51
2021/03/27 06:53:20;;;;;;;1.50;1.40;;;22.90;26.30;;;;;;4972227;28;20547;-56
2021/03/27 06:55:46;;;;;;;2.00;1.40;;;23.00;26.10;;;;;;4974221;28;20243;-55
2021/03/27 06:58:12;;;;;;;1.50;1.40;;;23.00;25.90;;;;;;4974749;28;20219;-54
2021/03/27 07:00:39;;;;;;;1.87;1.73;;;22.90;25.70;;;;;;4974159;28;20207;-51
2021/03/27 07:03:05;;;;;;;2.53;1.63;;;22.90;25.70;;;;;;4974447;28;20228;-55
2021/03/27 07:05:30;;;;;;;2.40;1.60;;;23.00;26.10;;;;;;4974501;28;20216;-56
2021/03/27 07:07:56;;;;;;;2.07;1.70;;;22.90;26.20;;;;;;4974670;28;20205;-56
2021/03/27 07:10:22;;;;;;;1.73;1.63;;;22.90;26.30;;;;;;4969393;28;20210;-55
2021/03/27 07:12:48;;;;;;;4.00;1.93;;;22.90;26.20;;;;;;4961795;28;20215;-49
2021/03/27 07:15:14;;;;;;;2.07;1.60;;;22.90;26.20;;;;;;4960625;28;20239;-49
2021/03/27 07:17:40;;;;;;;2.97;1.27;;;22.90;26.90;;;;;;4970447;28;20661;-50
2021/03/27 07:20:06;;;;;;;8.70;2.03;;;22.90;27.10;;;;;;4967889;28;20283;-50
2021/03/27 07:22:33;;;;;;;3.83;1.53;;;22.90;26.40;;;;;;4969492;28;20573;-50
2021/03/27 07:24:59;;;;;;;4.73;1.50;;;23.00;27.00;;;;;;4968036;28;20212;-43
2021/03/27 07:27:25;;;;;;;2.17;1.60;;;23.00;26.60;;;;;;4971850;28;20215;-47
2021/03/27 07:29:51;;;;;;;2.47;1.50;;;23.00;26.20;;;;;;4972623;28;20231;-46
2021/03/27 07:32:17;;;;;;;1.80;1.70;;;23.00;26.10;;;;;;4971642;28;20608;-55
2021/03/27 07:34:43;;;;;;;2.17;1.60;;;23.00;27.80;;;;;;4973249;28;20231;-51
2021/03/27 07:37:09;;;;;;;1.83;1.63;;;23.00;27.10;;;;;;4972082;28;20206;-51
2021/03/27 07:39:35;;;;;;;3.47;1.40;;;23.00;26.70;;;;;;4973390;28;20250;-51
2021/03/27 07:42:01;;;;;;;5.17;1.60;;;23.00;26.40;;;;;;4969584;28;20211;-52
2021/03/27 07:44:27;;;;;;;2.73;1.60;;;23.00;26.70;;;;;;4956341;28;20682;-54
2021/03/27 07:46:53;;;;;;;3.40;1.50;;;23.00;26.80;;;;;;4960737;28;20219;-57
2021/03/27 07:49:19;;;;;;;1.70;1.60;;;23.10;27.30;;;;;;4966427;28;20574;-53
2021/03/27 07:51:45;;;;;;;2.03;1.53;;;23.10;28.10;;;;;;4963911;28;20222;-58
2021/03/27 07:54:11;;;;;;;2.23;1.40;;;23.00;27.00;;;;;;4970091;28;20208;-58
2021/03/27 07:56:37;;;;;;;3.10;1.97;;;23.00;27.00;;;;;;4972746;28;20231;-60
2021/03/27 07:59:03;;;;;;;1.50;1.40;;;23.00;27.50;;;;;;4979476;28;20252;-60
2021/03/27 08:01:29;;;;;;;2.57;1.60;;;23.00;27.80;;;;;;4971930;28;20203;-61
2021/03/27 08:03:55;;;;;;;1.77;1.37;;;23.00;27.40;;;;;;4973238;28;20295;-59
2021/03/27 08:06:21;;;;;;;2.27;1.40;;;23.00;27.20;;;;;;4962297;28;20665;-57
2021/03/27 08:08:47;;;;;;;2.10;1.40;;;23.00;27.40;;;;;;4966469;28;20215;-58
2021/03/27 08:11:13;;;;;;;2.00;1.30;;;23.00;26.90;;;;;;4973470;28;20570;-55
2021/03/27 08:13:39;;;;;;;1.40;1.30;;;23.00;27.40;;;;;;4971244;28;20228;-53
2021/03/27 08:16:05;;;;;;;3.53;1.60;;;23.00;27.30;;;;;;4971305;28;20298;-55
2021/03/27 08:18:32;;;;;;;2.57;1.30;;;23.00;27.60;;;;;;4970434;28;20212;-52
2021/03/27 08:20:58;;;;;;;1.60;1.20;;;23.00;27.80;;;;;;4972084;28;20210;-55
2021/03/27 08:23:24;;;;;;;2.57;1.27;;;23.00;26.90;;;;;;4968606;28;20228;-55
2021/03/27 08:25:50;;;;;;;2.13;1.43;;;23.00;26.90;;;;;;4972157;28;20202;-56
2021/03/27 08:28:16;;;;;;;1.53;1.37;;;23.00;26.70;;;;;;4972360;28;20294;-53
2021/03/27 08:30:42;;;;;;;3.93;1.87;;;23.10;27.60;;;;;;4971985;28;20622;-55
2021/03/27 08:33:08;;;;;;;2.87;1.40;;;23.10;27.60;;;;;;4969984;28;20255;-56
2021/03/27 08:35:34;;;;;;;2.80;1.30;;;23.20;27.40;;;;;;4971441;28;20263;-60
2021/03/27 08:38:00;;;;;;;2.40;1.40;;;23.10;27.20;;;;;;4970105;28;20215;-50
2021/03/27 08:40:26;;;;;;;4.50;1.53;;;22.60;25.30;;;;;;4959704;28;20243;-57
2021/03/27 08:42:52;;;;;;;2.60;1.50;;;22.50;26.90;;;;;;4970941;28;20226;-58
2021/03/27 08:45:18;;;;;;;4.23;1.60;;;22.60;27.30;;;;;;4966570;28;20823;-57
2021/03/27 08:47:44;;;;;;;4.37;1.70;;;22.70;27.50;;;;;;4973102;28;20270;-53
2021/03/27 08:50:10;;;;;;;3.60;1.40;;;22.80;27.70;;;;;;4968912;28;20569;-55
2021/03/27 08:52:36;;;;;;;5.97;1.53;;;22.80;27.30;;;;;;4970357;28;20227;-52
2021/03/27 08:55:02;;;;;;;4.63;1.67;;;22.80;27.90;;;;;;4970519;28;20228;-52
2021/03/27 08:57:28;;;;;;;5.27;1.37;;;22.70;27.80;;;;;;4972315;28;20258;-50
2021/03/27 08:59:54;;;;;;;4.10;1.43;;;22.70;27.90;;;;;;4971936;28;20679;-54
2021/03/27 09:02:20;;;;;;;4.13;1.30;;;22.70;27.80;;;;;;4973338;28;20230;-50
2021/03/27 09:04:46;;;;;;;3.50;1.50;;;22.70;27.70;;;;;;4971728;28;20608;-50
2021/03/27 09:07:12;;;;;;;1.87;1.40;;;22.70;27.40;;;;;;4972051;28;20241;-49
2021/03/27 09:09:38;;;;;;;1.33;1.23;;;20.30;26.80;;;;;;4970286;28;20569;-52
2021/03/27 09:12:04;;;;;;;1.90;1.10;;;17.90;27.00;;;;;;4972789;28;20228;-49
2021/03/27 09:14:30;;;;;;;1.67;1.20;;;15.70;29.00;;;;;;4970176;28;20212;-54
2021/03/27 09:16:56;;;;;;;2.37;1.50;;;16.40;29.30;;;;;;4972243;28;20197;-53
2021/03/27 09:19:22;;;;;;;2.00;1.43;;;15.10;29.80;;;;;;4969442;28;20687;-44
2021/03/27 09:21:48;;;;;;;0.97;0.97;;;15.90;30.40;;;;;;4971292;28;20221;-45
2021/03/27 09:24:14;;;;;;;2.17;1.20;;;17.90;28.30;;;;;;4969110;28;20216;-47
2021/03/27 09:26:40;;;;;;;1.00;1.00;;;19.20;27.10;;;;;;4969063;28;20292;-51
2021/03/27 09:29:06;;;;;;;2.50;1.00;;;20.00;26.40;;;;;;4966857;28;20208;-48
2021/03/27 09:31:32;;;;;;;1.37;1.20;;;20.50;26.30;;;;;;4972920;28;20231;-47
2021/03/27 09:33:58;;;;;;;1.33;1.20;;;20.90;26.60;;;;;;4970732;28;20216;-45
2021/03/27 09:36:24;;;;;;;0.97;0.97;;;21.20;26.50;;;;;;4952824;28;20233;-46
2021/03/27 09:38:50;;;;;;;1.93;1.33;;;21.30;26.20;;;;;;4968392;28;20265;-44
2021/03/27 09:41:16;;;;;;;1.30;1.00;;;21.50;27.00;;;;;;4967503;28;20657;-52
2021/03/27 09:43:42;;;;;;;1.50;1.13;;;21.70;26.80;;;;;;4970775;28;20258;-43
2021/03/27 09:46:08;;;;;;;1.57;1.10;;;21.70;26.40;;;;;;4971697;28;20208;-48
2021/03/27 09:48:34;;;;;;;0.90;0.90;;;21.70;26.70;;;;;;4971514;28;20238;-43
2021/03/27 09:51:00;;;;;;;1.17;1.10;;;21.80;26.50;;;;;;4970597;28;20211;-46
2021/03/27 09:53:26;;;;;;;1.40;1.00;;;21.90;26.50;;;;;;4961870;28;20579;-47
2021/03/27 09:55:52;;;;;;;1.10;1.00;;;22.00;26.80;;;;;;4967723;28;20294;-47
2021/03/27 09:58:18;;;;;;;2.00;1.00;;;22.10;26.50;;;;;;4969204;28;20204;-47
2021/03/27 10:00:44;;;;;;;1.67;1.07;;;22.20;26.60;;;;;;4971806;28;20234;-53
2021/03/27 10:03:10;;;;;;;1.10;1.00;;;22.20;26.30;;;;;;4969730;28;20729;-45
2021/03/27 10:05:36;;;;;;;0.90;0.80;;;22.20;26.20;;;;;;4970418;28;20209;-55
2021/03/27 10:08:02;;;;;;;1.30;1.20;;;22.20;26.20;;;;;;4968430;28;20204;-49
2021/03/27 10:10:28;;;;;;;2.07;1.10;;;22.20;25.90;;;;;;4971148;28;20212;-45
2021/03/27 10:12:54;;;;;;;2.30;0.93;;;22.20;25.90;;;;;;4970331;28;20234;-50
2021/03/27 10:15:20;;;;;;;1.00;0.90;;;22.30;25.90;;;;;;4970047;28;20295;-46
2021/03/27 10:17:46;;;;;;;0.80;0.80;;;22.20;25.70;;;;;;4966006;28;20209;-47
2021/03/27 10:20:12;;;;;;;1.00;0.90;;;22.30;25.80;;;;;;4964970;28;20717;-45
2021/03/27 10:22:38;;;;;;;0.87;0.87;;;22.30;25.70;;;;;;4970977;28;20223;-47
2021/03/27 10:25:04;;;;;;;1.17;1.07;;;22.30;25.50;;;;;;4969285;28;20220;-48
2021/03/27 10:27:31;;;;;;;1.43;0.80;;;22.30;25.50;;;;;;4970005;28;20205;-43
2021/03/27 10:29:58;;;;;;;1.23;1.00;;;22.30;25.60;;;;;;4963525;28;20215;-45
2021/03/27 10:32:24;;;;;;;0.90;0.90;;;22.20;24.20;;;;;;4968928;28;20321;-43
2021/03/27 10:34:50;;;;;;;1.40;0.80;;;21.90;23.30;;;;;;4970158;28;20229;-43
2021/03/27 10:37:16;;;;;;;1.63;1.00;;;21.80;22.50;;;;;;4969999;28;20198;-44
2021/03/27 10:39:42;;;;;;;0.83;0.83;;;21.60;21.90;;;;;;4970206;28;20206;-43
2021/03/27 10:42:08;;;;;;;1.03;0.80;;;21.50;21.30;;;;;;4968733;28;20222;-45
2021/03/27 10:44:34;;;;;;;1.03;0.80;;;21.40;21.10;;;;;;4970907;28;20677;-49
2021/03/27 10:47:00;;;;;;;1.17;0.90;;;21.40;20.80;;;;;;4963509;28;20201;-45
2021/03/27 10:49:26;;;;;;;6.57;0.90;;;21.60;21.10;;;;;;4964145;28;20610;-44
2021/03/27 10:51:52;;;;;;;1.27;0.80;;;21.80;21.70;;;;;;4964643;28;20234;-40
2021/03/27 10:54:18;;;;;;;2.67;1.07;;;21.90;21.80;;;;;;4968496;28;20200;-41
2021/03/27 10:56:44;;;;;;;1.00;1.00;;;22.00;22.30;;;;;;4966842;28;20288;-43
2021/03/27 10:59:10;;;;;;;0.90;0.80;;;22.00;22.50;;;;;;4982923;28;20192;-41
2021/03/27 11:01:36;;;;;;;0.90;0.90;;;22.00;22.50;;;;;;4990970;28;20221;-46
2021/03/27 11:04:02;;;;;;;2.87;0.80;;;22.10;22.70;;;;;;4990239;28;20201;-45
2021/03/27 11:06:28;;;;;;;1.43;1.07;;;22.10;22.80;;;;;;4969348;28;20212;-46
2021/03/27 11:08:54;;;;;;;1.30;0.97;;;22.10;22.90;;;;;;4971341;28;20208;-43
2021/03/27 11:11:20;;;;;;;0.90;0.80;;;22.10;22.90;;;;;;4971440;28;20284;-45
2021/03/27 11:13:46;;;;;;;2.20;0.70;;;22.10;23.00;;;;;;4971307;28;20206;-44
2021/03/27 11:16:12;;;;;;;1.60;0.80;;;22.10;23.00;;;;;;4970263;28;20225;-44
2021/03/27 11:18:38;;;;;;;1.07;0.93;;;22.10;22.80;;;;;;4971099;28;20210;-49
2021/03/27 11:21:04;;;;;;;2.63;1.00;;;22.10;22.80;;;;;;4971394;28;20240;-45
2021/03/27 11:23:30;;;;;;;1.67;0.93;;;22.10;22.70;;;;;;4970505;28;20205;-47
2021/03/27 11:25:56;;;;;;;0.97;0.90;;;22.20;22.80;;;;;;4969802;28;20201;-42
2021/03/27 11:28:22;;;;;;;0.70;0.70;;;22.20;23.00;;;;;;4966974;28;20216;-41
2021/03/27 11:30:48;;;;;;;1.17;0.93;;;22.20;22.80;;;;;;4952346;28;20242;-49
2021/03/27 11:33:14;;;;;;;1.27;0.80;;;22.10;22.60;;;;;;4953872;28;20239;-49
2021/03/27 11:35:40;;;;;;;1.00;0.90;;;22.10;22.70;;;;;;4965282;28;20705;-42
2021/03/27 11:38:06;;;;;;;2.90;0.87;;;22.10;22.60;;;;;;4961083;28;20253;-41
2021/03/27 11:40:32;;;;;;;1.73;0.90;;;22.10;23.20;;;;;;4960318;28;20265;-45
2021/03/27 11:42:58;;;;;;;0.87;0.87;;;22.20;23.10;;;;;;4956410;28;20244;-41
2021/03/27 11:45:24;;;;;;;1.63;1.00;;;22.20;23.40;;;;;;4968369;28;20693;-43
2021/03/27 11:47:50;;;;;;;2.00;1.00;;;22.20;23.10;;;;;;4966559;28;20205;-44
2021/03/27 11:50:16;;;;;;;2.20;1.20;;;22.20;23.20;;;;;;4970103;28;20233;-40
2021/03/27 11:52:42;;;;;;;1.07;0.80;;;22.20;23.30;;;;;;4969833;28;20258;-40
2021/03/27 11:55:08;;;;;;;0.87;0.77;;;22.30;23.70;;;;;;4969739;28;20241;-45
2021/03/27 11:57:34;;;;;;;0.90;0.90;;;22.30;23.70;;;;;;4969237;28;20669;-45
2021/03/27 12:02:44;;;;;;;2.00;1.10;;;22.30;23.70;;;;;;4965471;28;20295;-41
2021/03/27 12:05:10;;;;;;;1.20;0.90;;;22.30;23.70;;;;;;4972848;28;20247;-45
2021/03/27 12:07:36;;;;;;;1.80;1.03;;;22.30;23.70;;;;;;4971230;28;20205;-44
2021/03/27 12:10:02;;;;;;;1.07;0.83;;;22.30;23.70;;;;;;4971550;28;20268;-44
2021/03/27 12:12:28;;;;;;;1.63;0.93;;;22.30;23.70;;;;;;4969415;28;20222;-52
2021/03/27 12:14:54;;;;;;;1.07;0.90;;;22.30;23.70;;;;;;4959211;28;20691;-51
2021/03/27 12:17:20;;;;;;;0.80;0.80;;;22.30;23.70;;;;;;4957772;28;20214;-48
2021/03/27 12:19:47;;;;;;;2.77;1.00;;;22.30;23.70;;;;;;4966800;28;20577;-52
2021/03/27 12:22:14;;;;;;;0.87;0.80;;;22.30;23.70;;;;;;4960203;28;20283;-49
2021/03/27 12:24:40;;;;;;;1.27;1.00;;;22.30;23.70;;;;;;4971430;28;20254;-45
2021/03/27 12:27:06;;;;;;;1.10;1.00;;;22.30;23.70;;;;;;4961966;28;20214;-41
2021/03/27 12:29:32;;;;;;;0.80;0.80;;;22.40;23.70;;;;;;4955334;28;20688;-43
2021/03/27 12:31:58;;;;;;;1.30;1.00;;;22.40;23.70;;;;;;4965963;28;20240;-45
2021/03/27 12:34:24;;;;;;;1.23;0.80;;;22.40;23.70;;;;;;4966808;28;20292;-45
2021/03/27 12:36:50;;;;;;;1.13;0.80;;;22.40;23.70;;;;;;4972750;28;20238;-46
2021/03/27 12:39:16;;;;;;;1.23;1.00;;;22.40;23.60;;;;;;4969879;28;20201;-45
2021/03/27 12:41:42;;;;;;;1.40;0.90;;;22.40;23.70;;;;;;4968224;28;20256;-47
2021/03/27 12:44:08;;;;;;;1.33;0.90;;;22.40;23.70;;;;;;4964368;28;20670;-46